sensor_id;sensor_type;location;lat;lon;timestamp;temperature;humidity
17954;DHT22;9102;53.548;9.926;2022-07-05T00:00:56;16.20;99.90
17954;DHT22;9102;53.548;9.926;2022-07-05T00:03:23;16.20;99.90
17954;DHT22;9102;53.548;9.926;2022-07-05T00:05:50;16.10;99.90
17954;DHT22;9102;53.548;9.926;2022-07-05T00:08:17;16.10;99.90
17954;DHT22;9102;53.548;9.926;2022-07-05T00:10:44;16.10;99.90
17954;DHT22;9102;53.548;9.926;2022-07-05T00:13:11;16.10;99.90
17954;DHT22;9102;53.548;9.926;2022-07-05T00:15:39;16.00;99.90
17954;DHT22;9102;53.548;9.926;2022-07-05T00:18:06;16.00;99.90
17954;DHT22;9102;53.548;9.926;2022-07-05T00:20:34;15.90;99.90
17954;DHT22;9102;53.548;9.926;2022-07-05T00:23:01;15.90;99.90
17954;DHT22;9102;53.548;9.926;2022-07-05T00:25:28;15.80;99.90
17954;DHT22;9102;53.548;9.926;2022-07-05T00:27:55;15.70;99.90
17954;DHT22;9102;53.548;9.926;2022-07-05T00:30:21;15.70;99.90
17954;DHT22;9102;53.548;9.926;2022-07-05T00:32:50;15.70;99.90
17954;DHT22;9102;53.548;9.926;2022-07-05T00:35:16;15.60;99.90
17954;DHT22;9102;53.548;9.926;2022-07-05T00:37:43;15.60;99.90
17954;DHT22;9102;53.548;9.926;2022-07-05T00:40:10;15.50;99.90
17954;DHT22;9102;53.548;9.926;2022-07-05T00:42:37;15.40;99.90
17954;DHT22;9102;53.548;9.926;2022-07-05T00:45:05;15.40;99.90
17954;DHT22;9102;53.548;9.926;2022-07-05T00:47:32;15.40;99.90
17954;DHT22;9102;53.548;9.926;2022-07-05T00:50:01;15.40;99.90
17954;DHT22;9102;53.548;9.926;2022-07-05T00:52:28;15.40;99.90
17954;DHT22;9102;53.548;9.926;2022-07-05T00:54:55;15.30;99.90
17954;DHT22;9102;53.548;9.926;2022-07-05T00:57:22;15.40;99.90
17954;DHT22;9102;53.548;9.926;2022-07-05T00:59:50;15.30;99.90
17954;DHT22;9102;53.548;9.926;2022-07-05T01:02:17;15.40;99.90
17954;DHT22;9102;53.548;9.926;2022-07-05T01:04:48;15.20;99.90
17954;DHT22;9102;53.548;9.926;2022-07-05T01:07:18;15.30;99.90
17954;DHT22;9102;53.548;9.926;2022-07-05T01:09:45;15.30;99.90
17954;DHT22;9102;53.548;9.926;2022-07-05T01:12:12;15.30;99.90
17954;DHT22;9102;53.548;9.926;2022-07-05T01:14:41;15.30;99.90
17954;DHT22;9102;53.548;9.926;2022-07-05T01:17:09;15.30;99.90
17954;DHT22;9102;53.548;9.926;2022-07-05T01:19:36;15.20;99.90
17954;DHT22;9102;53.548;9.926;2022-07-05T01:22:06;15.20;99.90
17954;DHT22;9102;53.548;9.926;2022-07-05T01:24:39;15.20;99.90
17954;DHT22;9102;53.548;9.926;2022-07-05T01:27:06;15.20;99.90
17954;DHT22;9102;53.548;9.926;2022-07-05T01:29:33;15.20;99.90
17954;DHT22;9102;53.548;9.926;2022-07-05T01:32:00;15.20;99.90
17954;DHT22;9102;53.548;9.926;2022-07-05T01:34:27;15.10;99.90
17954;DHT22;9102;53.548;9.926;2022-07-05T01:36:54;15.10;99.90
17954;DHT22;9102;53.548;9.926;2022-07-05T01:39:21;15.10;99.90
17954;DHT22;9102;53.548;9.926;2022-07-05T01:41:49;15.10;99.90
17954;DHT22;9102;53.548;9.926;2022-07-05T01:44:17;15.20;99.90
17954;DHT22;9102;53.548;9.926;2022-07-05T01:46:44;15.00;99.90
17954;DHT22;9102;53.548;9.926;2022-07-05T01:49:13;15.00;99.90
17954;DHT22;9102;53.548;9.926;2022-07-05T01:51:49;15.00;99.90
17954;DHT22;9102;53.548;9.926;2022-07-05T01:54:18;14.90;99.90
17954;DHT22;9102;53.548;9.926;2022-07-05T01:56:45;14.90;99.90
17954;DHT22;9102;53.548;9.926;2022-07-05T01:59:13;14.80;99.90
17954;DHT22;9102;53.548;9.926;2022-07-05T02:01:40;14.70;99.90
17954;DHT22;9102;53.548;9.926;2022-07-05T02:04:09;14.70;99.90
17954;DHT22;9102;53.548;9.926;2022-07-05T02:06:36;14.60;99.90
17954;DHT22;9102;53.548;9.926;2022-07-05T02:09:04;14.60;99.90
17954;DHT22;9102;53.548;9.926;2022-07-05T02:11:31;14.60;99.90
17954;DHT22;9102;53.548;9.926;2022-07-05T02:13:58;14.60;99.90
17954;DHT22;9102;53.548;9.926;2022-07-05T02:16:27;14.60;99.90
17954;DHT22;9102;53.548;9.926;2022-07-05T02:18:54;14.60;99.90
17954;DHT22;9102;53.548;9.926;2022-07-05T02:21:21;14.50;99.90
17954;DHT22;9102;53.548;9.926;2022-07-05T02:23:48;14.50;99.90
17954;DHT22;9102;53.548;9.926;2022-07-05T02:26:15;14.50;99.90
17954;DHT22;9102;53.548;9.926;2022-07-05T02:28:42;14.40;99.90
17954;DHT22;9102;53.548;9.926;2022-07-05T02:31:09;14.40;99.90
17954;DHT22;9102;53.548;9.926;2022-07-05T02:33:37;14.30;99.90
17954;DHT22;9102;53.548;9.926;2022-07-05T02:36:09;14.30;99.90
17954;DHT22;9102;53.548;9.926;2022-07-05T02:38:36;14.30;99.90
17954;DHT22;9102;53.548;9.926;2022-07-05T02:41:04;14.30;99.90
17954;DHT22;9102;53.548;9.926;2022-07-05T02:43:32;14.30;99.90
17954;DHT22;9102;53.548;9.926;2022-07-05T02:45:59;14.20;99.90
17954;DHT22;9102;53.548;9.926;2022-07-05T02:48:26;14.20;99.90
17954;DHT22;9102;53.548;9.926;2022-07-05T02:50:55;14.20;99.90
17954;DHT22;9102;53.548;9.926;2022-07-05T02:53:21;14.10;99.90
17954;DHT22;9102;53.548;9.926;2022-07-05T02:55:48;14.10;99.90
17954;DHT22;9102;53.548;9.926;2022-07-05T02:58:15;14.10;99.90
17954;DHT22;9102;53.548;9.926;2022-07-05T03:00:42;14.10;99.90
17954;DHT22;9102;53.548;9.926;2022-07-05T03:03:09;14.10;99.90
17954;DHT22;9102;53.548;9.926;2022-07-05T03:05:36;14.10;99.90
17954;DHT22;9102;53.548;9.926;2022-07-05T03:08:05;14.00;99.90
17954;DHT22;9102;53.548;9.926;2022-07-05T03:10:32;14.10;99.90
17954;DHT22;9102;53.548;9.926;2022-07-05T03:12:59;14.00;99.90
17954;DHT22;9102;53.548;9.926;2022-07-05T03:15:26;14.00;99.90
17954;DHT22;9102;53.548;9.926;2022-07-05T03:17:53;14.00;99.90
17954;DHT22;9102;53.548;9.926;2022-07-05T03:20:20;14.00;99.90
17954;DHT22;9102;53.548;9.926;2022-07-05T03:22:47;14.00;99.90
17954;DHT22;9102;53.548;9.926;2022-07-05T03:25:15;14.00;99.90
17954;DHT22;9102;53.548;9.926;2022-07-05T03:27:42;14.00;99.90
17954;DHT22;9102;53.548;9.926;2022-07-05T03:30:10;14.00;99.90
17954;DHT22;9102;53.548;9.926;2022-07-05T03:32:37;14.00;99.90
17954;DHT22;9102;53.548;9.926;2022-07-05T03:35:04;13.90;99.90
17954;DHT22;9102;53.548;9.926;2022-07-05T03:37:31;14.00;99.90
17954;DHT22;9102;53.548;9.926;2022-07-05T03:39:58;14.00;99.90
17954;DHT22;9102;53.548;9.926;2022-07-05T03:42:26;14.00;99.90
17954;DHT22;9102;53.548;9.926;2022-07-05T03:44:53;14.00;99.90
17954;DHT22;9102;53.548;9.926;2022-07-05T03:47:20;14.00;99.90
17954;DHT22;9102;53.548;9.926;2022-07-05T03:49:47;14.00;99.90
17954;DHT22;9102;53.548;9.926;2022-07-05T03:52:14;14.00;99.90
17954;DHT22;9102;53.548;9.926;2022-07-05T03:54:41;14.00;99.90
17954;DHT22;9102;53.548;9.926;2022-07-05T03:57:10;14.00;99.90
17954;DHT22;9102;53.548;9.926;2022-07-05T03:59:38;14.00;99.90
17954;DHT22;9102;53.548;9.926;2022-07-05T04:02:05;14.00;99.90
17954;DHT22;9102;53.548;9.926;2022-07-05T04:04:32;14.00;99.90
17954;DHT22;9102;53.548;9.926;2022-07-05T04:06:59;14.00;99.90
17954;DHT22;9102;53.548;9.926;2022-07-05T04:09:26;14.00;99.90
17954;DHT22;9102;53.548;9.926;2022-07-05T04:11:53;14.00;99.90
17954;DHT22;9102;53.548;9.926;2022-07-05T04:14:20;14.10;99.90
17954;DHT22;9102;53.548;9.926;2022-07-05T04:16:48;14.10;99.90
17954;DHT22;9102;53.548;9.926;2022-07-05T04:19:15;14.20;99.90
17954;DHT22;9102;53.548;9.926;2022-07-05T04:21:42;14.20;99.90
17954;DHT22;9102;53.548;9.926;2022-07-05T04:24:09;14.30;99.90
17954;DHT22;9102;53.548;9.926;2022-07-05T04:26:37;14.30;99.90
17954;DHT22;9102;53.548;9.926;2022-07-05T04:29:04;14.30;99.90
17954;DHT22;9102;53.548;9.926;2022-07-05T04:31:31;14.40;99.90
17954;DHT22;9102;53.548;9.926;2022-07-05T04:33:59;14.40;99.90
17954;DHT22;9102;53.548;9.926;2022-07-05T04:36:26;14.40;99.90
17954;DHT22;9102;53.548;9.926;2022-07-05T04:38:53;14.50;99.90
17954;DHT22;9102;53.548;9.926;2022-07-05T04:41:20;14.60;99.90
17954;DHT22;9102;53.548;9.926;2022-07-05T04:43:46;14.50;99.90
17954;DHT22;9102;53.548;9.926;2022-07-05T04:46:14;14.70;99.90
17954;DHT22;9102;53.548;9.926;2022-07-05T04:48:40;14.80;99.90
17954;DHT22;9102;53.548;9.926;2022-07-05T04:51:09;15.00;99.90
17954;DHT22;9102;53.548;9.926;2022-07-05T04:53:36;15.40;99.90
17954;DHT22;9102;53.548;9.926;2022-07-05T04:56:03;15.60;99.90
17954;DHT22;9102;53.548;9.926;2022-07-05T04:58:30;15.70;99.90
17954;DHT22;9102;53.548;9.926;2022-07-05T05:00:57;15.60;99.90
17954;DHT22;9102;53.548;9.926;2022-07-05T05:03:24;15.80;99.90
17954;DHT22;9102;53.548;9.926;2022-07-05T05:05:51;15.80;99.90
17954;DHT22;9102;53.548;9.926;2022-07-05T05:08:19;15.90;99.90
17954;DHT22;9102;53.548;9.926;2022-07-05T05:10:46;16.00;99.90
17954;DHT22;9102;53.548;9.926;2022-07-05T05:13:13;16.10;99.90
17954;DHT22;9102;53.548;9.926;2022-07-05T05:15:40;16.40;99.90
17954;DHT22;9102;53.548;9.926;2022-07-05T05:18:07;16.60;99.90
17954;DHT22;9102;53.548;9.926;2022-07-05T05:20:34;16.60;99.90
17954;DHT22;9102;53.548;9.926;2022-07-05T05:23:01;16.60;99.90
17954;DHT22;9102;53.548;9.926;2022-07-05T05:25:29;16.50;99.90
17954;DHT22;9102;53.548;9.926;2022-07-05T05:27:56;16.40;99.90
17954;DHT22;9102;53.548;9.926;2022-07-05T05:30:23;16.30;99.90
17954;DHT22;9102;53.548;9.926;2022-07-05T05:32:50;16.20;99.90
17954;DHT22;9102;53.548;9.926;2022-07-05T05:35:17;16.10;99.90
17954;DHT22;9102;53.548;9.926;2022-07-05T05:37:50;16.20;99.90
17954;DHT22;9102;53.548;9.926;2022-07-05T05:40:18;16.20;99.90
17954;DHT22;9102;53.548;9.926;2022-07-05T05:42:47;16.30;99.90
17954;DHT22;9102;53.548;9.926;2022-07-05T05:45:14;16.30;99.90
17954;DHT22;9102;53.548;9.926;2022-07-05T05:47:45;16.30;99.90
17954;DHT22;9102;53.548;9.926;2022-07-05T05:50:13;16.30;99.90
17954;DHT22;9102;53.548;9.926;2022-07-05T05:52:40;16.40;99.90
17954;DHT22;9102;53.548;9.926;2022-07-05T05:55:07;16.50;99.90
17954;DHT22;9102;53.548;9.926;2022-07-05T05:57:34;16.70;99.90
17954;DHT22;9102;53.548;9.926;2022-07-05T06:00:05;16.70;99.90
17954;DHT22;9102;53.548;9.926;2022-07-05T06:02:32;16.80;99.90
17954;DHT22;9102;53.548;9.926;2022-07-05T06:04:59;16.90;99.90
17954;DHT22;9102;53.548;9.926;2022-07-05T06:07:26;16.90;99.90
17954;DHT22;9102;53.548;9.926;2022-07-05T06:09:53;16.90;99.90
17954;DHT22;9102;53.548;9.926;2022-07-05T06:12:20;16.90;99.90
17954;DHT22;9102;53.548;9.926;2022-07-05T06:14:47;16.90;99.90
17954;DHT22;9102;53.548;9.926;2022-07-05T06:17:15;17.00;99.90
17954;DHT22;9102;53.548;9.926;2022-07-05T06:19:42;17.10;99.90
17954;DHT22;9102;53.548;9.926;2022-07-05T06:22:09;17.10;99.90
17954;DHT22;9102;53.548;9.926;2022-07-05T06:24:36;17.20;99.90
17954;DHT22;9102;53.548;9.926;2022-07-05T06:27:03;17.20;99.90
17954;DHT22;9102;53.548;9.926;2022-07-05T06:29:30;17.20;99.90
17954;DHT22;9102;53.548;9.926;2022-07-05T06:31:57;17.30;99.90
17954;DHT22;9102;53.548;9.926;2022-07-05T06:34:26;17.30;99.90
17954;DHT22;9102;53.548;9.926;2022-07-05T06:36:53;17.50;99.90
17954;DHT22;9102;53.548;9.926;2022-07-05T06:39:20;17.60;99.90
17954;DHT22;9102;53.548;9.926;2022-07-05T06:41:47;17.70;99.90
17954;DHT22;9102;53.548;9.926;2022-07-05T06:44:14;17.80;99.90
17954;DHT22;9102;53.548;9.926;2022-07-05T06:46:40;17.90;99.90
17954;DHT22;9102;53.548;9.926;2022-07-05T06:49:07;18.00;99.90
17954;DHT22;9102;53.548;9.926;2022-07-05T06:51:36;18.10;99.90
17954;DHT22;9102;53.548;9.926;2022-07-05T06:54:03;18.20;99.90
17954;DHT22;9102;53.548;9.926;2022-07-05T06:56:30;18.40;99.90
17954;DHT22;9102;53.548;9.926;2022-07-05T06:58:56;18.50;99.90
17954;DHT22;9102;53.548;9.926;2022-07-05T07:01:23;18.60;99.90
17954;DHT22;9102;53.548;9.926;2022-07-05T07:03:52;18.90;99.90
17954;DHT22;9102;53.548;9.926;2022-07-05T07:06:22;19.00;99.90
17954;DHT22;9102;53.548;9.926;2022-07-05T07:08:51;19.30;99.90
17954;DHT22;9102;53.548;9.926;2022-07-05T07:11:35;19.30;99.90
17954;DHT22;9102;53.548;9.926;2022-07-05T07:14:02;19.40;99.90
17954;DHT22;9102;53.548;9.926;2022-07-05T07:16:29;19.50;99.90
17954;DHT22;9102;53.548;9.926;2022-07-05T07:18:56;19.50;99.90
17954;DHT22;9102;53.548;9.926;2022-07-05T07:21:23;19.60;99.90
17954;DHT22;9102;53.548;9.926;2022-07-05T07:23:51;19.50;99.90
17954;DHT22;9102;53.548;9.926;2022-07-05T07:26:18;19.60;99.90
17954;DHT22;9102;53.548;9.926;2022-07-05T07:28:45;19.60;99.90
17954;DHT22;9102;53.548;9.926;2022-07-05T07:31:11;19.70;99.90
17954;DHT22;9102;53.548;9.926;2022-07-05T07:33:38;19.60;99.90
17954;DHT22;9102;53.548;9.926;2022-07-05T07:36:05;19.60;99.90
17954;DHT22;9102;53.548;9.926;2022-07-05T07:38:32;19.60;99.90
17954;DHT22;9102;53.548;9.926;2022-07-05T07:41:01;19.60;99.90
17954;DHT22;9102;53.548;9.926;2022-07-05T07:43:29;19.80;99.90
17954;DHT22;9102;53.548;9.926;2022-07-05T07:45:56;19.70;99.90
17954;DHT22;9102;53.548;9.926;2022-07-05T07:48:23;19.70;99.90
17954;DHT22;9102;53.548;9.926;2022-07-05T07:50:50;19.50;99.90
17954;DHT22;9102;53.548;9.926;2022-07-05T07:53:18;19.50;99.90
17954;DHT22;9102;53.548;9.926;2022-07-05T07:55:45;19.40;99.90
17954;DHT22;9102;53.548;9.926;2022-07-05T07:58:13;19.30;99.90
17954;DHT22;9102;53.548;9.926;2022-07-05T08:00:40;19.20;99.90
17954;DHT22;9102;53.548;9.926;2022-07-05T08:03:07;19.10;99.90
17954;DHT22;9102;53.548;9.926;2022-07-05T08:05:34;19.00;99.90
17954;DHT22;9102;53.548;9.926;2022-07-05T08:08:01;19.10;99.90
17954;DHT22;9102;53.548;9.926;2022-07-05T08:10:28;19.00;99.90
17954;DHT22;9102;53.548;9.926;2022-07-05T08:12:55;19.00;99.90
17954;DHT22;9102;53.548;9.926;2022-07-05T08:15:23;19.00;99.90
17954;DHT22;9102;53.548;9.926;2022-07-05T08:17:50;19.10;99.90
17954;DHT22;9102;53.548;9.926;2022-07-05T08:20:34;19.00;99.90
17954;DHT22;9102;53.548;9.926;2022-07-05T08:23:18;19.10;99.90
17954;DHT22;9102;53.548;9.926;2022-07-05T08:25:45;19.30;99.90
17954;DHT22;9102;53.548;9.926;2022-07-05T08:28:12;19.30;99.90
17954;DHT22;9102;53.548;9.926;2022-07-05T08:30:40;19.50;99.90
17954;DHT22;9102;53.548;9.926;2022-07-05T08:33:07;19.80;99.90
17954;DHT22;9102;53.548;9.926;2022-07-05T08:35:34;19.70;99.90
17954;DHT22;9102;53.548;9.926;2022-07-05T08:38:01;19.70;99.90
17954;DHT22;9102;53.548;9.926;2022-07-05T08:40:29;19.70;99.90
17954;DHT22;9102;53.548;9.926;2022-07-05T08:43:00;19.90;99.90
17954;DHT22;9102;53.548;9.926;2022-07-05T08:45:29;20.00;99.90
17954;DHT22;9102;53.548;9.926;2022-07-05T08:47:59;20.10;99.90
17954;DHT22;9102;53.548;9.926;2022-07-05T08:50:27;20.30;99.90
17954;DHT22;9102;53.548;9.926;2022-07-05T08:52:54;20.30;99.90
17954;DHT22;9102;53.548;9.926;2022-07-05T08:55:22;20.40;99.90
17954;DHT22;9102;53.548;9.926;2022-07-05T08:57:49;20.50;99.90
17954;DHT22;9102;53.548;9.926;2022-07-05T09:00:16;20.50;99.90
17954;DHT22;9102;53.548;9.926;2022-07-05T09:02:43;20.60;99.90
17954;DHT22;9102;53.548;9.926;2022-07-05T09:05:13;20.80;99.90
17954;DHT22;9102;53.548;9.926;2022-07-05T09:07:48;21.10;99.90
17954;DHT22;9102;53.548;9.926;2022-07-05T09:10:19;21.20;99.90
17954;DHT22;9102;53.548;9.926;2022-07-05T09:12:48;21.30;99.90
17954;DHT22;9102;53.548;9.926;2022-07-05T09:15:14;21.20;99.90
17954;DHT22;9102;53.548;9.926;2022-07-05T09:17:42;21.20;99.90
17954;DHT22;9102;53.548;9.926;2022-07-05T09:20:12;21.20;99.90
17954;DHT22;9102;53.548;9.926;2022-07-05T09:22:48;21.20;99.90
17954;DHT22;9102;53.548;9.926;2022-07-05T09:25:17;21.40;99.90
17954;DHT22;9102;53.548;9.926;2022-07-05T09:27:48;21.60;99.90
17954;DHT22;9102;53.548;9.926;2022-07-05T09:30:31;21.40;99.90
17954;DHT22;9102;53.548;9.926;2022-07-05T09:33:03;21.20;99.90
17954;DHT22;9102;53.548;9.926;2022-07-05T09:35:33;21.20;99.90
17954;DHT22;9102;53.548;9.926;2022-07-05T09:38:00;21.20;99.90
17954;DHT22;9102;53.548;9.926;2022-07-05T09:40:29;21.00;99.90
17954;DHT22;9102;53.548;9.926;2022-07-05T09:43:11;21.30;99.90
17954;DHT22;9102;53.548;9.926;2022-07-05T09:45:38;21.20;99.90
17954;DHT22;9102;53.548;9.926;2022-07-05T09:48:07;21.20;99.90
17954;DHT22;9102;53.548;9.926;2022-07-05T09:50:36;21.00;99.90
17954;DHT22;9102;53.548;9.926;2022-07-05T09:53:03;21.00;99.90
17954;DHT22;9102;53.548;9.926;2022-07-05T09:55:30;20.70;99.90
17954;DHT22;9102;53.548;9.926;2022-07-05T09:57:58;20.70;99.90
17954;DHT22;9102;53.548;9.926;2022-07-05T10:00:25;20.80;99.90
17954;DHT22;9102;53.548;9.926;2022-07-05T10:02:54;20.80;99.90
17954;DHT22;9102;53.548;9.926;2022-07-05T10:05:27;20.80;99.90
17954;DHT22;9102;53.548;9.926;2022-07-05T10:07:57;20.70;99.90
17954;DHT22;9102;53.548;9.926;2022-07-05T10:10:25;20.80;99.90
17954;DHT22;9102;53.548;9.926;2022-07-05T10:12:55;20.90;99.90
17954;DHT22;9102;53.548;9.926;2022-07-05T10:15:24;20.70;99.90
17954;DHT22;9102;53.548;9.926;2022-07-05T10:17:54;20.70;99.90
17954;DHT22;9102;53.548;9.926;2022-07-05T10:20:27;20.90;99.90
17954;DHT22;9102;53.548;9.926;2022-07-05T10:22:56;21.00;99.90
17954;DHT22;9102;53.548;9.926;2022-07-05T10:25:25;21.10;99.90
17954;DHT22;9102;53.548;9.926;2022-07-05T10:27:53;21.20;99.90
17954;DHT22;9102;53.548;9.926;2022-07-05T10:30:22;21.30;99.90
17954;DHT22;9102;53.548;9.926;2022-07-05T10:32:49;21.40;99.90
17954;DHT22;9102;53.548;9.926;2022-07-05T10:35:17;21.40;99.90
17954;DHT22;9102;53.548;9.926;2022-07-05T10:37:45;21.40;99.90
17954;DHT22;9102;53.548;9.926;2022-07-05T10:40:15;21.50;99.90
17954;DHT22;9102;53.548;9.926;2022-07-05T10:42:46;21.50;99.90
17954;DHT22;9102;53.548;9.926;2022-07-05T10:45:28;21.70;99.90
17954;DHT22;9102;53.548;9.926;2022-07-05T10:48:14;21.70;99.90
17954;DHT22;9102;53.548;9.926;2022-07-05T10:50:46;21.60;99.90
17954;DHT22;9102;53.548;9.926;2022-07-05T10:53:15;21.30;99.30
17954;DHT22;9102;53.548;9.926;2022-07-05T10:55:52;21.40;99.90
17954;DHT22;9102;53.548;9.926;2022-07-05T10:58:25;21.60;99.80
17954;DHT22;9102;53.548;9.926;2022-07-05T11:04:23;21.60;98.90
17954;DHT22;9102;53.548;9.926;2022-07-05T11:06:52;21.50;99.40
17954;DHT22;9102;53.548;9.926;2022-07-05T11:09:20;21.50;99.60
17954;DHT22;9102;53.548;9.926;2022-07-05T11:12:04;21.30;99.90
17954;DHT22;9102;53.548;9.926;2022-07-05T11:14:47;21.50;99.90
17954;DHT22;9102;53.548;9.926;2022-07-05T11:17:22;21.70;99.00
17954;DHT22;9102;53.548;9.926;2022-07-05T11:20:10;21.80;98.60
17954;DHT22;9102;53.548;9.926;2022-07-05T11:22:38;22.20;98.80
17954;DHT22;9102;53.548;9.926;2022-07-05T11:25:07;22.50;98.50
17954;DHT22;9102;53.548;9.926;2022-07-05T11:27:37;22.60;97.30
17954;DHT22;9102;53.548;9.926;2022-07-05T11:30:23;22.60;96.70
17954;DHT22;9102;53.548;9.926;2022-07-05T11:32:50;22.60;97.20
17954;DHT22;9102;53.548;9.926;2022-07-05T11:35:19;22.20;96.90
17954;DHT22;9102;53.548;9.926;2022-07-05T11:37:57;21.90;97.60
17954;DHT22;9102;53.548;9.926;2022-07-05T11:40:30;21.70;98.80
17954;DHT22;9102;53.548;9.926;2022-07-05T11:42:59;21.60;98.30
17954;DHT22;9102;53.548;9.926;2022-07-05T11:45:28;21.60;99.40
17954;DHT22;9102;53.548;9.926;2022-07-05T11:47:56;21.80;99.30
17954;DHT22;9102;53.548;9.926;2022-07-05T11:50:31;21.80;99.70
17954;DHT22;9102;53.548;9.926;2022-07-05T11:52:58;22.00;99.80
17954;DHT22;9102;53.548;9.926;2022-07-05T11:55:26;22.20;99.20
17954;DHT22;9102;53.548;9.926;2022-07-05T11:57:54;22.20;99.30
17954;DHT22;9102;53.548;9.926;2022-07-05T12:00:31;22.20;99.00
17954;DHT22;9102;53.548;9.926;2022-07-05T12:02:59;22.30;98.40
17954;DHT22;9102;53.548;9.926;2022-07-05T12:05:30;22.60;98.90
17954;DHT22;9102;53.548;9.926;2022-07-05T12:07:57;22.70;98.30
17954;DHT22;9102;53.548;9.926;2022-07-05T12:10:24;22.50;97.10
17954;DHT22;9102;53.548;9.926;2022-07-05T12:13:09;22.50;97.50
17954;DHT22;9102;53.548;9.926;2022-07-05T12:15:37;22.30;98.00
17954;DHT22;9102;53.548;9.926;2022-07-05T12:18:06;22.30;98.10
17954;DHT22;9102;53.548;9.926;2022-07-05T12:20:36;22.30;98.10
17954;DHT22;9102;53.548;9.926;2022-07-05T12:23:04;22.30;98.30
17954;DHT22;9102;53.548;9.926;2022-07-05T12:25:32;22.50;98.10
17954;DHT22;9102;53.548;9.926;2022-07-05T12:28:09;22.80;98.00
17954;DHT22;9102;53.548;9.926;2022-07-05T12:30:37;22.80;96.80
17954;DHT22;9102;53.548;9.926;2022-07-05T12:33:05;22.80;96.60
17954;DHT22;9102;53.548;9.926;2022-07-05T12:35:34;22.90;97.30
17954;DHT22;9102;53.548;9.926;2022-07-05T12:38:04;22.70;97.00
17954;DHT22;9102;53.548;9.926;2022-07-05T12:40:31;22.60;97.40
17954;DHT22;9102;53.548;9.926;2022-07-05T12:43:03;22.30;97.60
17954;DHT22;9102;53.548;9.926;2022-07-05T12:45:31;22.20;97.50
17954;DHT22;9102;53.548;9.926;2022-07-05T12:48:00;22.20;98.00
17954;DHT22;9102;53.548;9.926;2022-07-05T12:50:28;22.20;98.20
17954;DHT22;9102;53.548;9.926;2022-07-05T12:53:01;22.50;98.30
17954;DHT22;9102;53.548;9.926;2022-07-05T12:55:48;22.50;97.90
17954;DHT22;9102;53.548;9.926;2022-07-05T12:58:33;22.90;98.70
17954;DHT22;9102;53.548;9.926;2022-07-05T13:01:01;23.00;98.10
17954;DHT22;9102;53.548;9.926;2022-07-05T13:04:02;23.00;97.80
17954;DHT22;9102;53.548;9.926;2022-07-05T13:06:40;22.80;97.60
17954;DHT22;9102;53.548;9.926;2022-07-05T13:09:07;22.70;97.80
17954;DHT22;9102;53.548;9.926;2022-07-05T13:11:34;22.90;97.50
17954;DHT22;9102;53.548;9.926;2022-07-05T13:14:01;22.60;97.50
17954;DHT22;9102;53.548;9.926;2022-07-05T13:16:27;22.40;98.20
17954;DHT22;9102;53.548;9.926;2022-07-05T13:18:54;22.00;98.70
17954;DHT22;9102;53.548;9.926;2022-07-05T13:21:23;21.70;98.60
17954;DHT22;9102;53.548;9.926;2022-07-05T13:23:50;21.40;98.70
17954;DHT22;9102;53.548;9.926;2022-07-05T13:26:16;21.20;99.20
17954;DHT22;9102;53.548;9.926;2022-07-05T13:28:44;21.00;99.40
17954;DHT22;9102;53.548;9.926;2022-07-05T13:31:10;20.90;99.50
17954;DHT22;9102;53.548;9.926;2022-07-05T13:33:38;20.80;99.90
17954;DHT22;9102;53.548;9.926;2022-07-05T13:36:05;20.70;99.90
17954;DHT22;9102;53.548;9.926;2022-07-05T13:38:34;20.60;99.90
17954;DHT22;9102;53.548;9.926;2022-07-05T13:41:01;20.50;99.90
17954;DHT22;9102;53.548;9.926;2022-07-05T13:43:27;20.30;99.90
17954;DHT22;9102;53.548;9.926;2022-07-05T13:45:55;20.10;99.90
17954;DHT22;9102;53.548;9.926;2022-07-05T13:48:22;19.90;99.90
17954;DHT22;9102;53.548;9.926;2022-07-05T13:50:48;19.60;99.90
17954;DHT22;9102;53.548;9.926;2022-07-05T13:53:15;19.50;99.90
17954;DHT22;9102;53.548;9.926;2022-07-05T13:55:44;19.30;99.90
17954;DHT22;9102;53.548;9.926;2022-07-05T13:58:10;19.40;99.90
17954;DHT22;9102;53.548;9.926;2022-07-05T14:00:37;19.70;99.90
17954;DHT22;9102;53.548;9.926;2022-07-05T14:03:04;20.00;99.90
17954;DHT22;9102;53.548;9.926;2022-07-05T14:05:31;20.40;99.90
17954;DHT22;9102;53.548;9.926;2022-07-05T14:07:58;20.80;99.90
17954;DHT22;9102;53.548;9.926;2022-07-05T14:10:25;20.80;99.90
17954;DHT22;9102;53.548;9.926;2022-07-05T14:12:53;20.60;99.90
17954;DHT22;9102;53.548;9.926;2022-07-05T14:15:20;20.50;99.90
17954;DHT22;9102;53.548;9.926;2022-07-05T14:17:47;20.30;99.90
17954;DHT22;9102;53.548;9.926;2022-07-05T14:20:14;20.20;99.90
17954;DHT22;9102;53.548;9.926;2022-07-05T14:22:42;20.10;99.90
17954;DHT22;9102;53.548;9.926;2022-07-05T14:25:09;20.00;99.90
17954;DHT22;9102;53.548;9.926;2022-07-05T14:27:36;20.00;99.90
17954;DHT22;9102;53.548;9.926;2022-07-05T14:30:06;19.80;99.90
17954;DHT22;9102;53.548;9.926;2022-07-05T14:32:35;19.80;99.90
17954;DHT22;9102;53.548;9.926;2022-07-05T14:35:02;19.40;99.90
17954;DHT22;9102;53.548;9.926;2022-07-05T14:37:29;19.30;99.90
17954;DHT22;9102;53.548;9.926;2022-07-05T14:39:56;19.30;99.90
17954;DHT22;9102;53.548;9.926;2022-07-05T14:42:22;19.70;99.90
17954;DHT22;9102;53.548;9.926;2022-07-05T14:44:49;20.10;99.90
17954;DHT22;9102;53.548;9.926;2022-07-05T14:47:18;20.40;99.90
17954;DHT22;9102;53.548;9.926;2022-07-05T14:49:44;20.40;99.90
17954;DHT22;9102;53.548;9.926;2022-07-05T14:52:11;20.60;99.90
17954;DHT22;9102;53.548;9.926;2022-07-05T14:54:38;20.60;99.90
17954;DHT22;9102;53.548;9.926;2022-07-05T14:57:05;20.80;99.90
17954;DHT22;9102;53.548;9.926;2022-07-05T14:59:32;20.80;99.90
17954;DHT22;9102;53.548;9.926;2022-07-05T15:01:59;20.70;99.90
17954;DHT22;9102;53.548;9.926;2022-07-05T15:04:27;20.70;99.90
17954;DHT22;9102;53.548;9.926;2022-07-05T15:06:54;20.60;99.90
17954;DHT22;9102;53.548;9.926;2022-07-05T15:09:21;20.50;99.90
17954;DHT22;9102;53.548;9.926;2022-07-05T15:11:48;20.40;99.90
17954;DHT22;9102;53.548;9.926;2022-07-05T15:14:15;20.00;99.90
17954;DHT22;9102;53.548;9.926;2022-07-05T15:16:42;20.00;99.90
17954;DHT22;9102;53.548;9.926;2022-07-05T15:19:09;20.10;99.90
17954;DHT22;9102;53.548;9.926;2022-07-05T15:21:38;20.10;99.90
17954;DHT22;9102;53.548;9.926;2022-07-05T15:24:06;20.10;99.90
17954;DHT22;9102;53.548;9.926;2022-07-05T15:26:33;20.10;99.90
17954;DHT22;9102;53.548;9.926;2022-07-05T15:29:03;20.00;99.90
17954;DHT22;9102;53.548;9.926;2022-07-05T15:31:30;19.90;99.90
17954;DHT22;9102;53.548;9.926;2022-07-05T15:33:58;20.00;99.90
17954;DHT22;9102;53.548;9.926;2022-07-05T15:36:25;20.30;99.90
17954;DHT22;9102;53.548;9.926;2022-07-05T15:38:53;20.40;99.90
17954;DHT22;9102;53.548;9.926;2022-07-05T15:41:21;20.50;99.90
17954;DHT22;9102;53.548;9.926;2022-07-05T15:43:48;20.60;99.90
17954;DHT22;9102;53.548;9.926;2022-07-05T15:46:15;20.80;99.90
17954;DHT22;9102;53.548;9.926;2022-07-05T15:48:42;20.90;99.90
17954;DHT22;9102;53.548;9.926;2022-07-05T15:51:09;20.70;99.90
17954;DHT22;9102;53.548;9.926;2022-07-05T15:53:39;20.40;99.90
17954;DHT22;9102;53.548;9.926;2022-07-05T15:56:07;20.30;99.90